Time;durP1;ratioP1;P1;durP2;ratioP2;P2;SDS_P1;SDS_P2;PMS_P1;PMS_P2;Temp;Humidity;BMP_temperature;BMP_pressure;BME280_temperature;BME280_humidity;BME280_pressure;Samples;Min_cycle;Max_cycle;Signal;HPM_P1;HPM_P2
2022/08/04 00:14:02;;;;;;;1.63;0.50;;;23.60;94.10;;;;;;4273344;23;20051;-87
2022/08/04 00:16:31;;;;;;;1.27;0.40;;;23.50;94.50;;;;;;4945690;28;20110;-87
2022/08/04 00:19:12;;;;;;;1.40;0.60;;;23.50;94.80;;;;;;4940280;28;20030;-88
2022/08/04 00:21:39;;;;;;;0.82;0.47;;;23.50;94.80;;;;;;4936590;28;20610;-89
2022/08/04 00:24:06;;;;;;;1.23;0.50;;;23.30;95.00;;;;;;4936056;28;20136;-87
2022/08/04 00:26:32;;;;;;;1.20;0.60;;;23.10;95.20;;;;;;4952576;28;20031;-88
2022/08/04 00:28:59;;;;;;;1.17;0.45;;;23.80;96.40;;;;;;4934147;28;20031;-87
2022/08/04 00:31:26;;;;;;;2.22;0.63;;;23.60;95.20;;;;;;4950241;28;20023;-87
2022/08/04 00:33:53;;;;;;;1.10;0.38;;;23.50;95.90;;;;;;4947613;28;20527;-87
2022/08/04 00:36:20;;;;;;;1.48;0.60;;;23.30;96.20;;;;;;4936969;28;20023;-87
2022/08/04 00:38:46;;;;;;;1.23;0.55;;;22.30;96.20;;;;;;4951480;28;20065;-88
2022/08/04 00:41:25;;;;;;;1.27;0.60;;;23.60;96.80;;;;;;4950930;28;20074;-88
2022/08/04 00:44:08;;;;;;;1.80;0.45;;;23.60;96.90;;;;;;4937244;28;20035;-88
2022/08/04 00:46:52;;;;;;;1.67;0.40;;;23.20;97.10;;;;;;4955707;28;20051;-89
2022/08/04 00:49:34;;;;;;;2.72;0.80;;;23.10;97.50;;;;;;4927378;29;20024;-89
2022/08/04 00:52:05;;;;;;;1.75;0.70;;;23.10;97.50;;;;;;4931335;28;20027;-88
2022/08/04 00:54:56;;;;;;;1.42;0.40;;;23.00;98.70;;;;;;4947594;28;20024;-88
2022/08/04 00:57:25;;;;;;;1.77;0.50;;;23.20;99.90;;;;;;4956696;28;20495;-88
2022/08/04 01:00:12;;;;;;;1.17;0.45;;;23.60;99.90;;;;;;4938827;28;20539;-88
2022/08/04 01:02:53;;;;;;;3.00;0.55;;;23.00;99.90;;;;;;4950204;28;20035;-88
2022/08/04 01:05:46;;;;;;;1.05;0.40;;;22.90;99.90;;;;;;4953336;28;20038;-88
2022/08/04 01:08:26;;;;;;;1.08;0.57;;;22.90;99.90;;;;;;4953084;28;20090;-88
2022/08/04 01:11:13;;;;;;;1.70;0.60;;;22.90;99.90;;;;;;4939440;28;20027;-87
2022/08/04 01:14:13;;;;;;;1.00;0.50;;;22.80;99.90;;;;;;4936091;28;20118;-87
2022/08/04 01:16:49;;;;;;;0.70;0.30;;;22.80;99.90;;;;;;4952503;28;20031;-88
2022/08/04 01:19:53;;;;;;;1.83;0.47;;;22.80;99.90;;;;;;4934209;28;20031;-89
2022/08/04 01:22:31;;;;;;;1.15;0.47;;;22.90;99.90;;;;;;4946444;28;20039;-88
2022/08/04 01:25:03;;;;;;;2.13;0.50;;;22.80;99.90;;;;;;4951851;28;20065;-88
2022/08/04 01:28:03;;;;;;;1.65;0.40;;;22.70;99.90;;;;;;4952348;28;20032;-88
2022/08/04 01:30:32;;;;;;;1.23;0.47;;;22.70;99.90;;;;;;4942281;28;20023;-88
2022/08/04 01:33:08;;;;;;;1.38;0.55;;;22.70;99.90;;;;;;4951934;28;21358;-88
2022/08/04 01:35:42;;;;;;;2.55;0.68;;;22.70;99.90;;;;;;4930944;29;20090;-88
2022/08/04 01:38:12;;;;;;;2.08;0.50;;;22.60;99.90;;;;;;4940726;28;20035;-88
2022/08/04 01:40:40;;;;;;;1.00;0.50;;;22.60;99.90;;;;;;4958697;28;20061;-88
2022/08/04 01:43:08;;;;;;;0.77;0.38;;;22.70;99.90;;;;;;4941211;29;20062;-88
2022/08/04 01:45:40;;;;;;;1.95;0.50;;;22.70;99.90;;;;;;4932016;28;20024;-88
2022/08/04 01:48:07;;;;;;;1.52;0.40;;;22.70;99.90;;;;;;4939258;28;20158;-88
2022/08/04 01:50:43;;;;;;;1.20;0.68;;;23.20;99.90;;;;;;4934254;28;20031;-88
2022/08/04 01:53:09;;;;;;;1.30;0.47;;;22.60;99.90;;;;;;4936313;29;20020;-88
2022/08/04 01:55:39;;;;;;;0.88;0.40;;;22.80;99.90;;;;;;4947598;28;20495;-88
2022/08/04 01:58:08;;;;;;;1.25;0.60;;;22.60;99.90;;;;;;4934616;28;20023;-88
2022/08/04 02:00:37;;;;;;;1.42;0.50;;;22.80;99.90;;;;;;4935551;28;20507;-88
2022/08/04 02:03:03;;;;;;;1.08;0.50;;;22.40;99.80;;;;;;4927782;29;20156;-88
2022/08/04 02:05:28;;;;;;;1.60;0.60;;;22.50;98.80;;;;;;4947763;28;20563;-88
2022/08/04 02:08:14;;;;;;;2.15;0.70;;;22.40;98.60;;;;;;4931890;28;20480;-88
2022/08/04 02:10:59;;;;;;;0.95;0.40;;;22.80;98.50;;;;;;4951090;29;20038;-88
2022/08/04 02:13:34;;;;;;;2.25;0.52;;;22.80;98.10;;;;;;4951986;28;20114;-88
2022/08/04 02:16:44;;;;;;;3.72;0.60;;;22.30;98.40;;;;;;4935797;29;20027;-88
2022/08/04 02:19:34;;;;;;;1.35;0.50;;;22.40;99.00;;;;;;4947202;28;20493;-88
2022/08/04 02:22:08;;;;;;;1.65;0.50;;;22.30;99.50;;;;;;4929856;29;20024;-88
2022/08/04 02:24:44;;;;;;;1.55;0.60;;;23.10;99.60;;;;;;4929967;28;20106;-87
2022/08/04 02:27:13;;;;;;;1.10;0.47;;;22.60;99.40;;;;;;4935425;29;20119;-88
2022/08/04 02:30:03;;;;;;;1.05;0.50;;;22.90;99.70;;;;;;4936617;29;20167;-88
2022/08/04 02:32:34;;;;;;;1.60;0.60;;;22.60;99.50;;;;;;4939281;29;20449;-88
2022/08/04 02:35:15;;;;;;;1.38;0.52;;;22.30;99.80;;;;;;4932323;29;20024;-88
2022/08/04 02:37:52;;;;;;;0.60;0.30;;;22.30;99.70;;;;;;4934665;28;20103;-88
2022/08/04 02:40:21;;;;;;;2.05;0.63;;;22.80;99.90;;;;;;4939892;28;20102;-88
2022/08/04 02:42:46;;;;;;;1.27;0.40;;;22.30;99.90;;;;;;4957597;28;20039;-88
2022/08/04 02:45:13;;;;;;;0.98;0.40;;;22.30;99.90;;;;;;4959113;28;20039;-88
2022/08/04 02:47:40;;;;;;;0.95;0.50;;;22.80;99.90;;;;;;4941405;29;20023;-87
2022/08/04 02:50:10;;;;;;;0.93;0.40;;;22.10;99.90;;;;;;4942167;29;20023;-87
2022/08/04 02:52:38;;;;;;;1.15;0.47;;;22.00;99.90;;;;;;4957442;28;20046;-88
2022/08/04 02:55:08;;;;;;;1.08;0.50;;;21.90;96.60;;;;;;4952692;28;20046;-89
2022/08/04 02:57:38;;;;;;;1.63;0.50;;;21.90;96.70;;;;;;4942495;28;20034;-87
2022/08/04 03:00:13;;;;;;;0.90;0.43;;;21.90;96.80;;;;;;4963319;28;20031;-87
2022/08/04 03:03:16;;;;;;;1.30;0.60;;;22.60;97.60;;;;;;4942107;29;20091;-87
2022/08/04 03:06:10;;;;;;;1.08;0.50;;;21.90;97.00;;;;;;4942667;29;20061;-88
2022/08/04 03:09:30;;;;;;;0.95;0.60;;;21.80;97.30;;;;;;4942713;29;20212;-87
2022/08/04 03:12:15;;;;;;;1.13;0.47;;;22.40;98.20;;;;;;4943591;28;20153;-88
2022/08/04 03:15:00;;;;;;;1.17;0.40;;;21.80;98.90;;;;;;4936664;29;20035;-88
2022/08/04 03:18:22;;;;;;;1.10;0.50;;;22.50;99.60;;;;;;4955471;28;20032;-88
2022/08/04 03:20:59;;;;;;;1.63;0.50;;;23.80;99.90;;;;;;4919258;29;20040;-87
2022/08/04 03:24:00;;;;;;;1.17;0.57;;;21.80;99.90;;;;;;4956351;28;20039;-87
2022/08/04 03:26:50;;;;;;;1.02;0.43;;;21.90;99.90;;;;;;4943571;28;20074;-87
2022/08/04 03:29:19;;;;;;;1.48;0.60;;;21.80;99.90;;;;;;4937439;29;20038;-88
2022/08/04 03:32:16;;;;;;;2.00;0.60;;;21.60;99.90;;;;;;4955835;28;20027;-88
2022/08/04 03:35:04;;;;;;;0.93;0.50;;;22.90;99.90;;;;;;4943464;29;20029;-88
2022/08/04 03:38:02;;;;;;;1.85;0.60;;;21.70;99.90;;;;;;4940666;28;20054;-88
2022/08/04 03:40:34;;;;;;;1.27;0.52;;;22.30;99.90;;;;;;4934322;29;20433;-87
2022/08/04 03:43:34;;;;;;;2.67;0.73;;;21.80;99.90;;;;;;4961510;28;20031;-87
2022/08/04 03:46:26;;;;;;;2.03;0.77;;;21.60;99.90;;;;;;4966842;28;20186;-87
2022/08/04 03:49:18;;;;;;;1.45;0.50;;;21.60;99.90;;;;;;4970784;28;20037;-87
2022/08/04 03:55:30;;;;;;;2.50;0.85;;;21.60;99.90;;;;;;4956340;29;20509;-88
2022/08/04 03:58:29;;;;;;;2.40;0.77;;;21.50;99.90;;;;;;4954036;28;20055;-88
2022/08/04 04:01:06;;;;;;;1.88;0.77;;;21.60;99.90;;;;;;4953303;29;20027;-87
2022/08/04 04:04:09;;;;;;;1.60;0.60;;;21.40;99.90;;;;;;4949330;29;20042;-87
2022/08/04 04:07:18;;;;;;;1.10;0.50;;;21.40;99.90;;;;;;4945767;28;20024;-88
2022/08/04 04:09:53;;;;;;;0.80;0.50;;;21.50;99.90;;;;;;4955934;29;20387;-88
2022/08/04 04:13:05;;;;;;;1.50;0.80;;;21.90;99.90;;;;;;4948848;28;20030;-88
2022/08/04 04:15:36;;;;;;;1.83;1.02;;;22.30;99.90;;;;;;4938952;28;20035;-86
2022/08/04 04:18:31;;;;;;;1.92;0.60;;;22.50;99.90;;;;;;4940521;29;20425;-87
2022/08/04 04:21:22;;;;;;;2.33;0.75;;;21.50;99.90;;;;;;4935075;29;21876;-87
2022/08/04 04:24:20;;;;;;;1.60;0.80;;;21.50;99.90;;;;;;4944334;28;20036;-87
2022/08/04 04:27:00;;;;;;;1.70;0.60;;;21.40;99.90;;;;;;4925845;29;20114;-87
2022/08/04 04:29:52;;;;;;;1.30;0.68;;;22.50;99.90;;;;;;4935874;29;20023;-88
2022/08/04 04:32:21;;;;;;;;;;;21.40;99.90;;;;;;4928370;29;20194;-87
2022/08/04 04:35:05;;;;;;;1.65;0.60;;;21.40;99.90;;;;;;4932493;28;19915;-87
2022/08/04 04:38:05;;;;;;;1.48;0.60;;;21.80;99.90;;;;;;4943750;29;20418;-88
2022/08/04 04:40:45;;;;;;;2.85;1.30;;;22.60;99.90;;;;;;4939474;29;20031;-87
2022/08/04 04:43:46;;;;;;;2.58;0.60;;;22.10;99.90;;;;;;4927594;29;20175;-88
2022/08/04 04:46:32;;;;;;;1.63;0.77;;;21.70;99.90;;;;;;4950078;28;20027;-88
2022/08/04 04:55:56;;;;;;;2.53;0.68;;;22.10;99.90;;;;;;4963174;28;20031;-88
2022/08/04 04:58:24;;;;;;;1.52;0.60;;;22.50;99.90;;;;;;4942598;29;20027;-87
2022/08/04 05:01:27;;;;;;;1.05;0.60;;;21.50;99.90;;;;;;4950806;28;20039;-88
2022/08/04 05:04:22;;;;;;;1.42;0.60;;;22.20;99.90;;;;;;4949573;28;20079;-87
2022/08/04 05:07:04;;;;;;;1.38;0.50;;;19.90;99.90;;;;;;4930320;28;20118;-87
2022/08/04 05:09:53;;;;;;;1.05;0.40;;;22.20;99.90;;;;;;4948632;28;20028;-88
2022/08/04 05:12:34;;;;;;;1.02;0.40;;;23.20;99.90;;;;;;4940932;28;20027;-88
2022/08/04 05:15:03;;;;;;;1.35;0.63;;;22.30;99.90;;;;;;4940159;29;20408;-88
2022/08/04 05:17:47;;;;;;;1.60;0.52;;;22.40;99.90;;;;;;4938575;29;20047;-89
2022/08/04 05:20:34;;;;;;;2.05;0.57;;;22.40;99.90;;;;;;4954225;28;20048;-89
2022/08/04 05:23:28;;;;;;;1.02;0.60;;;22.70;99.90;;;;;;4935105;29;20416;-87
2022/08/04 05:26:11;;;;;;;1.60;0.70;;;21.80;99.90;;;;;;4951055;28;20038;-87
2022/08/04 05:28:51;;;;;;;2.30;0.80;;;22.30;99.90;;;;;;4952288;28;20172;-88
2022/08/04 05:31:36;;;;;;;2.42;1.30;;;22.90;99.90;;;;;;4951048;28;20028;-88
2022/08/04 05:34:08;;;;;;;2.17;0.80;;;22.50;99.90;;;;;;4941990;28;20035;-88
2022/08/04 05:36:43;;;;;;;3.83;1.10;;;22.20;99.90;;;;;;4935400;28;20504;-88
2022/08/04 05:39:17;;;;;;;1.63;0.70;;;22.30;99.90;;;;;;4944280;28;20035;-88
2022/08/04 05:41:44;;;;;;;1.60;0.70;;;22.30;99.90;;;;;;4938596;28;20093;-88
2022/08/04 05:44:10;;;;;;;5.05;1.10;;;22.70;99.90;;;;;;4941364;28;20035;-88
2022/08/04 05:46:37;;;;;;;1.60;0.68;;;22.10;99.90;;;;;;4930008;29;20042;-88
2022/08/04 05:49:04;;;;;;;1.25;0.57;;;22.40;99.90;;;;;;4952250;28;20027;-89
2022/08/04 05:51:32;;;;;;;1.58;0.70;;;22.20;99.90;;;;;;4940148;28;20024;-89
2022/08/04 05:53:59;;;;;;;1.90;0.80;;;22.30;99.90;;;;;;4929796;28;20039;-89
2022/08/04 05:56:26;;;;;;;1.98;0.82;;;22.50;99.90;;;;;;4930174;28;20036;-89
2022/08/04 05:58:53;;;;;;;2.03;0.80;;;21.70;99.90;;;;;;4944816;28;20023;-89
2022/08/04 06:01:19;;;;;;;2.85;0.70;;;23.10;99.90;;;;;;4949889;28;20031;-89
2022/08/04 06:03:49;;;;;;;1.55;0.70;;;23.00;99.90;;;;;;4935264;29;20050;-90
2022/08/04 06:06:20;;;;;;;2.30;0.88;;;23.20;99.90;;;;;;4944544;28;20114;-89
2022/08/04 06:08:46;;;;;;;2.53;0.68;;;23.30;99.90;;;;;;4947479;28;20026;-89
2022/08/04 06:11:13;;;;;;;1.20;0.60;;;23.50;99.90;;;;;;4944748;28;20094;-88
2022/08/04 06:13:53;;;;;;;2.97;0.60;;;23.50;99.90;;;;;;4930256;29;20046;-88
2022/08/04 06:16:22;;;;;;;1.95;0.75;;;23.60;99.90;;;;;;4931761;29;20035;-89
2022/08/04 06:18:52;;;;;;;3.28;0.60;;;23.60;99.90;;;;;;4932402;29;20042;-89
2022/08/04 06:21:27;;;;;;;1.67;0.63;;;23.50;99.90;;;;;;4949300;28;20035;-89
2022/08/04 07:35:24;;;;;;;;;;;;;;;;;;;;;
2022/08/04 07:45:48;;;;;;;4.57;0.45;;;27.60;98.50;;;;;;4903567;29;20108;-89
2022/08/04 07:49:22;;;;;;;1.65;0.75;;;28.50;98.00;;;;;;4899240;29;20030;-90
2022/08/04 08:12:29;;;;;;;1.60;0.70;;;29.40;96.80;;;;;;4881587;29;20077;-89
2022/08/04 08:42:36;;;;;;;1.20;0.60;;;29.70;93.80;;;;;;1283253;26;20124;-88
2022/08/04 08:49:37;;;;;;;;;;;;;;;;;;;;;
2022/08/04 08:55:23;;;;;;;2.65;0.68;;;30.70;92.40;;;;;;5024430;23;20504;-89
2022/08/04 08:58:41;;;;;;;0.90;0.60;;;31.90;92.60;;;;;;4969092;28;20365;-90
2022/08/04 09:02:10;;;;;;;1.30;0.35;;;32.00;92.70;;;;;;4953787;28;20026;-89
2022/08/04 09:05:16;;;;;;;1.60;0.60;;;31.90;91.90;;;;;;4896255;29;20060;-89
2022/08/04 09:11:27;;;;;;;1.35;0.50;;;31.60;91.30;;;;;;4890321;29;20048;-89
2022/08/04 09:17:46;;;;;;;1.60;0.57;;;33.20;91.10;;;;;;4908687;28;20085;-88
2022/08/04 09:28:46;;;;;;;0.88;0.47;;;32.00;89.10;;;;;;1286968;26;20059;-89
2022/08/04 09:32:04;;;;;;;1.17;0.50;;;32.50;84.70;;;;;;4937118;28;20059;-89
2022/08/04 09:53:46;;;;;;;1.38;0.52;;;33.40;80.70;;;;;;4961746;28;20136;-88
2022/08/04 10:00:19;;;;;;;0.98;0.50;;;33.50;80.90;;;;;;4983455;28;20044;-87
2022/08/04 10:10:46;;;;;;;1.05;0.50;;;34.90;83.20;;;;;;4918889;29;20024;-88
2022/08/04 10:13:54;;;;;;;1.17;0.40;;;34.40;83.60;;;;;;4822805;29;20427;-87
2022/08/04 10:16:36;;;;;;;1.60;0.52;;;35.20;85.40;;;;;;4878202;29;20121;-88
2022/08/04 10:20:01;;;;;;;2.00;0.68;;;34.80;85.40;;;;;;4932125;29;20040;-87
2022/08/04 10:26:35;;;;;;;1.38;0.50;;;35.50;86.60;;;;;;4927715;29;20050;-89
2022/08/04 10:29:38;;;;;;;1.50;0.63;;;33.60;83.90;;;;;;4918220;29;20024;-88
2022/08/04 10:32:32;;;;;;;1.10;0.50;;;33.70;84.10;;;;;;4915110;29;20056;-88
2022/08/04 10:35:22;;;;;;;1.23;0.50;;;34.20;83.40;;;;;;4907128;29;20114;-89
2022/08/04 10:41:49;;;;;;;1.58;0.40;;;35.70;82.90;;;;;;4917588;29;19997;-88
2022/08/04 10:44:44;;;;;;;1.00;0.47;;;35.30;80.90;;;;;;4932019;29;20119;-89
2022/08/04 10:48:03;;;;;;;0.73;0.35;;;35.60;80.80;;;;;;4927109;29;20115;-89
2022/08/04 10:54:56;;;;;;;0.65;0.30;;;35.10;77.60;;;;;;4906862;29;20135;-88
2022/08/04 11:02:03;;;;;;;1.00;0.32;;;35.30;75.50;;;;;;4890953;29;20032;-88
2022/08/04 11:05:40;;;;;;;0.30;0.20;;;36.40;75.10;;;;;;4838880;29;20045;-87
2022/08/04 11:08:39;;;;;;;0.70;0.40;;;36.70;77.00;;;;;;4876743;29;20518;-89
2022/08/04 11:18:58;;;;;;;0.60;0.30;;;37.10;85.50;;;;;;4881056;29;20083;-88
2022/08/04 11:22:21;;;;;;;0.82;0.40;;;36.60;79.00;;;;;;4916666;29;20047;-89
2022/08/04 11:25:27;;;;;;;1.65;0.40;;;37.20;80.00;;;;;;4922561;29;20118;-89
2022/08/04 11:32:12;;;;;;;;;;;;;;;;;;;;;
2022/08/04 11:34:58;;;;;;;;;;;;;;;;;;;;;
2022/08/04 11:38:17;;;;;;;0.52;0.32;;;36.60;82.70;;;;;;4914600;29;20032;-88
2022/08/04 11:41:45;;;;;;;1.00;0.40;;;35.90;79.30;;;;;;4929875;29;20122;-89
2022/08/04 11:44:59;;;;;;;5.05;0.47;;;37.30;81.90;;;;;;4821674;29;20044;-88
2022/08/04 11:47:58;;;;;;;2.65;0.68;;;36.40;80.20;;;;;;4891909;29;20633;-89
2022/08/04 11:54:36;;;;;;;1.60;0.40;;;38.70;80.30;;;;;;4891680;29;20108;-89
2022/08/04 12:00:53;;;;;;;0.93;0.38;;;37.70;80.80;;;;;;4902604;29;20052;-88
2022/08/04 12:04:06;;;;;;;;;;;;;;;;;;;;;
2022/08/04 12:06:38;;;;;;;1.13;0.50;;;38.80;80.90;;;;;;4924177;29;20046;-90
2022/08/04 12:09:26;;;;;;;2.38;0.55;;;39.60;82.20;;;;;;4918048;29;20076;-89
2022/08/04 12:12:29;;;;;;;1.02;0.47;;;39.70;82.90;;;;;;4931902;29;20035;-89
2022/08/04 12:15:37;;;;;;;0.85;0.43;;;38.90;82.10;;;;;;4935516;29;20032;-89
2022/08/04 12:18:20;;;;;;;1.20;0.52;;;39.30;82.20;;;;;;4915378;29;20086;-88
2022/08/04 12:21:06;;;;;;;;;;;;;;;;;;;;;
2022/08/04 12:39:49;;;;;;;1.50;0.60;;;38.50;84.30;;;;;;4957563;28;20054;-92
2022/08/04 12:42:46;;;;;;;;;;;;;;;;;;;;;
2022/08/04 12:45:56;;;;;;;;;;;;;;;;;;;;;
2022/08/04 12:49:23;;;;;;;1.08;0.40;;;36.90;84.70;;;;;;4956381;28;20530;-91
2022/08/04 12:51:49;;;;;;;1.23;0.50;;;37.80;84.70;;;;;;4909906;29;20027;-91
2022/08/04 12:54:42;;;;;;;1.05;0.55;;;37.50;84.20;;;;;;4939775;29;20028;-91
2022/08/04 12:57:25;;;;;;;2.08;0.50;;;37.30;85.10;;;;;;4933263;29;20078;-91
2022/08/04 12:59:59;;;;;;;1.27;0.40;;;37.30;82.40;;;;;;4937102;29;20032;-91
2022/08/04 13:05:47;;;;;;;1.15;0.47;;;37.60;85.30;;;;;;4962272;28;20066;-91
2022/08/04 13:08:23;;;;;;;1.15;0.57;;;36.90;84.80;;;;;;4950175;29;20049;-91
2022/08/04 13:11:00;;;;;;;1.08;0.45;;;37.20;87.00;;;;;;4938782;29;20107;-91
2022/08/04 13:14:20;;;;;;;1.05;0.40;;;37.40;85.60;;;;;;4940124;29;20020;-91
2022/08/04 13:16:57;;;;;;;1.05;0.30;;;37.70;84.30;;;;;;4961287;28;20480;-91
2022/08/04 13:19:26;;;;;;;1.25;0.50;;;38.30;84.70;;;;;;4943776;29;20050;-90
2022/08/04 13:21:59;;;;;;;1.25;0.50;;;38.90;83.60;;;;;;4941820;29;20027;-91
2022/08/04 13:27:56;;;;;;;0.98;0.40;;;;;;;;;;4967123;29;20038;-92
2022/08/04 13:30:51;;;;;;;0.70;0.40;;;40.00;84.70;;;;;;4962998;29;20022;-91
2022/08/04 13:33:26;;;;;;;0.88;0.40;;;40.40;52.40;;;;;;4946232;29;20045;-91
2022/08/04 13:35:53;;;;;;;0.47;0.35;;;40.70;53.00;;;;;;4946468;29;20073;-91
2022/08/04 13:38:38;;;;;;;1.27;0.50;;;40.90;51.00;;;;;;4955624;28;20039;-92
2022/08/04 13:41:51;;;;;;;0.73;0.50;;;40.70;51.40;;;;;;4945168;28;20023;-91
2022/08/04 13:44:37;;;;;;;0.60;0.40;;;40.90;51.10;;;;;;4964653;28;20031;-91
2022/08/04 13:47:13;;;;;;;0.68;0.40;;;40.40;51.40;;;;;;4957969;29;20060;-91
2022/08/04 13:50:26;;;;;;;;;;;;;;;;;;;;;
2022/08/04 13:53:02;;;;;;;1.20;0.40;;;39.60;52.70;;;;;;4975973;28;20047;-92
2022/08/04 13:56:02;;;;;;;1.25;0.40;;;39.80;53.00;;;;;;4955097;28;20054;-92
2022/08/04 14:02:21;;;;;;;0.88;0.50;;;41.00;52.40;;;;;;4966947;28;20043;-90
2022/08/04 14:04:53;;;;;;;0.65;0.32;;;41.30;51.50;;;;;;4950468;29;20023;-88
2022/08/04 14:07:21;;;;;;;0.90;0.50;;;41.40;51.80;;;;;;4941434;28;20086;-88
2022/08/04 14:09:50;;;;;;;0.85;0.43;;;41.40;51.30;;;;;;4964057;28;20015;-88
2022/08/04 14:12:17;;;;;;;1.23;0.40;;;41.10;51.30;;;;;;4945356;28;20042;-88
2022/08/04 14:14:49;;;;;;;0.70;0.40;;;41.20;51.20;;;;;;4949202;28;20030;-87
2022/08/04 14:17:17;;;;;;;0.95;0.47;;;41.00;50.80;;;;;;4951160;28;20038;-86
2022/08/04 14:19:56;;;;;;;1.08;0.47;;;40.70;51.00;;;;;;4965028;28;20169;-87
2022/08/04 14:22:25;;;;;;;1.17;0.50;;;40.80;50.80;;;;;;4965736;28;20023;-87
2022/08/04 14:25:07;;;;;;;1.48;0.50;;;41.10;50.80;;;;;;4955487;29;20094;-87
2022/08/04 14:27:44;;;;;;;1.40;0.40;;;41.40;51.70;;;;;;4964414;28;20036;-86
2022/08/04 14:30:24;;;;;;;3.85;0.50;;;41.60;50.40;;;;;;4963005;29;20092;-86
2022/08/04 14:33:06;;;;;;;0.47;0.30;;;42.00;50.70;;;;;;4970925;28;20011;-87
2022/08/04 14:35:39;;;;;;;1.30;0.60;;;42.20;49.90;;;;;;4950067;28;20051;-87
2022/08/04 14:38:07;;;;;;;1.48;0.50;;;42.30;48.70;;;;;;4953663;28;20100;-88
2022/08/04 14:40:43;;;;;;;1.25;0.60;;;42.50;49.60;;;;;;4965132;28;20058;-88
2022/08/04 14:43:09;;;;;;;1.70;0.50;;;42.80;49.70;;;;;;4945213;28;20024;-88
2022/08/04 14:45:42;;;;;;;1.20;0.47;;;42.80;48.80;;;;;;4944020;28;20117;-88
2022/08/04 14:48:12;;;;;;;2.30;0.52;;;43.00;48.60;;;;;;4964180;28;20028;-88
2022/08/04 14:50:47;;;;;;;0.75;0.50;;;42.60;48.10;;;;;;4944827;29;20034;-87
2022/08/04 14:53:21;;;;;;;1.23;0.60;;;42.20;48.90;;;;;;4944937;29;20023;-88
2022/08/04 14:55:56;;;;;;;0.60;0.38;;;42.00;49.20;;;;;;4952496;29;20035;-88
2022/08/04 14:58:28;;;;;;;1.20;0.52;;;41.80;49.50;;;;;;4950344;29;20099;-87
2022/08/04 15:00:59;;;;;;;1.13;0.50;;;41.30;49.80;;;;;;4943996;28;20388;-88
2022/08/04 15:03:29;;;;;;;0.80;0.40;;;41.10;50.00;;;;;;4944378;28;20027;-87
2022/08/04 15:05:58;;;;;;;1.10;0.40;;;41.00;49.60;;;;;;4970853;28;20015;-88
2022/08/04 15:08:24;;;;;;;1.00;0.43;;;40.80;50.20;;;;;;4970482;28;20023;-88
2022/08/04 15:10:57;;;;;;;1.10;0.40;;;41.00;50.20;;;;;;4946802;28;20042;-88
2022/08/04 15:13:26;;;;;;;0.57;0.40;;;41.00;50.40;;;;;;4950000;28;20031;-88
2022/08/04 15:15:55;;;;;;;3.90;0.63;;;40.80;50.00;;;;;;4951515;28;20055;-88
2022/08/04 15:18:29;;;;;;;0.70;0.40;;;40.50;49.80;;;;;;4944703;29;20038;-87
2022/08/04 15:20:56;;;;;;;1.40;0.50;;;40.70;50.30;;;;;;4941879;29;20058;-88
2022/08/04 15:23:22;;;;;;;1.17;0.50;;;40.80;49.90;;;;;;4959848;28;20082;-88
2022/08/04 15:25:52;;;;;;;2.13;0.50;;;40.80;49.70;;;;;;4961972;28;20027;-88
2022/08/04 15:28:25;;;;;;;1.70;0.50;;;40.90;49.90;;;;;;4943657;29;20074;-88
2022/08/04 15:30:52;;;;;;;0.88;0.40;;;40.80;50.10;;;;;;4943255;29;20499;-87
2022/08/04 15:33:36;;;;;;;0.90;0.40;;;40.80;50.10;;;;;;4943058;29;20027;-88
2022/08/04 15:36:34;;;;;;;0.40;0.30;;;40.60;50.00;;;;;;4944629;29;20054;-88
2022/08/04 15:39:21;;;;;;;0.98;0.45;;;40.50;50.10;;;;;;4966020;28;20130;-88
2022/08/04 15:42:08;;;;;;;1.65;0.60;;;40.30;49.40;;;;;;4966685;29;20090;-88
2022/08/04 15:45:06;;;;;;;0.90;0.50;;;40.10;49.50;;;;;;4954139;29;20031;-88
2022/08/04 15:47:32;;;;;;;1.35;0.45;;;39.80;49.90;;;;;;4942341;29;20083;-88
2022/08/04 15:50:16;;;;;;;3.75;0.65;;;39.60;49.60;;;;;;4962912;29;20042;-88
2022/08/04 15:53:05;;;;;;;0.90;0.50;;;39.40;49.50;;;;;;4950457;29;20020;-88
2022/08/04 15:55:38;;;;;;;1.00;0.40;;;39.20;50.70;;;;;;4957062;29;20031;-88
2022/08/04 15:58:24;;;;;;;1.10;0.45;;;39.00;50.20;;;;;;4956682;28;20118;-88
2022/08/04 16:00:58;;;;;;;1.00;0.57;;;38.60;50.80;;;;;;4969353;28;20027;-87
2022/08/04 16:03:40;;;;;;;0.85;0.40;;;38.40;52.00;;;;;;4965288;28;20043;-87
2022/08/04 16:06:10;;;;;;;1.20;0.50;;;38.00;52.40;;;;;;4967625;28;20026;-87
2022/08/04 16:09:03;;;;;;;1.15;0.43;;;37.70;52.70;;;;;;4970781;28;20042;-87
2022/08/04 16:11:39;;;;;;;2.50;0.50;;;37.60;51.80;;;;;;4975283;28;20390;-86
2022/08/04 16:14:10;;;;;;;0.90;0.50;;;37.30;52.70;;;;;;4952376;28;20034;-88
2022/08/04 16:16:39;;;;;;;1.00;0.55;;;37.10;52.70;;;;;;4957211;28;20019;-87
2022/08/04 16:19:22;;;;;;;3.28;0.60;;;36.70;52.50;;;;;;4950727;28;20082;-88
2022/08/04 16:21:54;;;;;;;1.95;0.60;;;36.50;53.50;;;;;;4961792;28;20030;-87
2022/08/04 16:24:38;;;;;;;1.20;0.50;;;36.30;54.90;;;;;;4930657;28;20027;-87
2022/08/04 16:27:41;;;;;;;1.40;0.50;;;36.20;53.40;;;;;;4955923;28;20074;-87
2022/08/04 16:30:10;;;;;;;1.10;0.60;;;36.10;53.50;;;;;;4944724;28;20051;-87
2022/08/04 16:32:48;;;;;;;1.33;0.55;;;36.00;53.50;;;;;;4945032;28;20027;-88
2022/08/04 16:35:27;;;;;;;1.50;0.80;;;35.90;54.10;;;;;;4946088;28;20039;-87
2022/08/04 16:38:16;;;;;;;1.77;0.60;;;35.70;54.20;;;;;;4961350;28;20027;-87
2022/08/04 16:40:52;;;;;;;1.15;0.50;;;35.60;54.50;;;;;;4946717;29;20034;-87
2022/08/04 16:43:19;;;;;;;1.80;0.70;;;35.40;54.80;;;;;;4949073;28;20089;-87
2022/08/04 16:45:54;;;;;;;0.98;0.47;;;35.30;55.40;;;;;;4951046;29;20034;-87
2022/08/04 16:48:31;;;;;;;1.02;0.40;;;35.20;55.20;;;;;;4964383;28;20034;-87
2022/08/04 16:51:08;;;;;;;1.35;0.70;;;35.10;55.20;;;;;;4943859;28;20019;-87
2022/08/04 16:53:43;;;;;;;1.30;0.47;;;35.10;55.40;;;;;;4945823;28;20039;-87
2022/08/04 16:56:17;;;;;;;1.52;0.52;;;35.00;55.50;;;;;;4946721;28;20031;-88
2022/08/04 16:58:46;;;;;;;1.40;0.55;;;34.90;56.10;;;;;;4948894;28;20026;-88
2022/08/04 17:01:17;;;;;;;1.80;0.73;;;34.80;56.10;;;;;;4961533;28;20576;-88
2022/08/04 17:03:52;;;;;;;1.10;0.47;;;34.70;56.10;;;;;;4950350;28;20058;-88
2022/08/04 17:06:19;;;;;;;1.10;0.50;;;34.70;56.50;;;;;;4969196;28;20067;-88
2022/08/04 17:08:48;;;;;;;1.13;0.60;;;34.60;56.10;;;;;;4954796;28;20030;-88
2022/08/04 17:11:15;;;;;;;1.35;0.63;;;34.50;56.30;;;;;;4959087;28;20043;-87
2022/08/04 17:13:47;;;;;;;0.98;0.50;;;34.40;56.40;;;;;;4949577;29;20580;-88
2022/08/04 17:16:24;;;;;;;1.50;0.50;;;34.40;56.40;;;;;;4945047;28;20039;-88
2022/08/04 17:18:52;;;;;;;2.72;0.63;;;34.30;56.70;;;;;;4945773;29;20087;-88
2022/08/04 17:21:22;;;;;;;1.33;0.60;;;34.20;57.10;;;;;;4945194;28;20470;-87
2022/08/04 17:23:51;;;;;;;;;;;34.10;57.70;;;;;;4960342;28;20082;-88
2022/08/04 17:26:24;;;;;;;1.23;0.50;;;34.00;57.50;;;;;;4944649;28;19910;-88
2022/08/04 17:28:56;;;;;;;1.48;0.68;;;34.00;57.40;;;;;;4964182;28;20147;-88
2022/08/04 17:31:30;;;;;;;1.23;0.73;;;33.90;57.50;;;;;;4939359;29;20523;-87
2022/08/04 17:34:00;;;;;;;1.23;0.60;;;33.80;57.90;;;;;;4947240;29;20027;-88
2022/08/04 17:36:31;;;;;;;1.98;0.43;;;33.70;57.90;;;;;;4967728;28;20027;-87
2022/08/04 17:39:04;;;;;;;1.58;0.70;;;33.70;58.10;;;;;;4966253;28;20027;-88
2022/08/04 17:41:30;;;;;;;0.77;0.52;;;33.60;58.40;;;;;;4938080;29;20027;-86
2022/08/04 17:44:01;;;;;;;1.13;0.50;;;33.50;58.30;;;;;;4960077;29;20042;-87
2022/08/04 17:46:32;;;;;;;0.90;0.40;;;33.50;58.50;;;;;;4972656;28;20055;-87
2022/08/04 17:49:09;;;;;;;1.77;0.60;;;33.40;58.50;;;;;;4963709;29;20031;-88
2022/08/04 17:51:43;;;;;;;2.70;0.70;;;33.20;58.70;;;;;;4943515;29;20062;-88
2022/08/04 17:54:11;;;;;;;1.08;0.47;;;33.30;59.30;;;;;;4959631;29;20047;-87
2022/08/04 17:56:51;;;;;;;1.52;0.50;;;33.20;59.50;;;;;;4947652;28;20043;-87
2022/08/04 17:59:24;;;;;;;1.20;0.60;;;33.10;58.50;;;;;;4959369;29;20023;-88
2022/08/04 18:01:50;;;;;;;2.45;0.90;;;33.00;59.30;;;;;;4954155;28;20032;-86
2022/08/04 18:04:37;;;;;;;1.20;0.65;;;32.90;59.60;;;;;;4932272;29;20051;-87
2022/08/04 18:07:06;;;;;;;2.28;0.70;;;32.70;59.50;;;;;;4949230;29;20575;-87
2022/08/04 18:09:35;;;;;;;2.40;0.90;;;32.70;59.90;;;;;;4963432;29;20046;-86
2022/08/04 18:12:05;;;;;;;2.85;1.08;;;32.60;59.90;;;;;;4943682;29;20421;-86
2022/08/04 18:14:40;;;;;;;;;;;32.60;59.90;;;;;;4959412;29;20480;-87
2022/08/04 18:17:06;;;;;;;2.00;0.90;;;32.50;60.20;;;;;;4945863;28;19910;-88
2022/08/04 18:19:36;;;;;;;2.10;0.88;;;32.40;60.30;;;;;;4950125;29;20024;-87
2022/08/04 18:22:07;;;;;;;2.53;1.45;;;32.30;60.20;;;;;;4949236;28;20488;-87
2022/08/04 18:24:35;;;;;;;2.00;0.88;;;32.20;60.60;;;;;;4958428;28;20030;-87
2022/08/04 18:27:05;;;;;;;1.10;0.60;;;32.20;60.50;;;;;;4961519;28;20024;-88
2022/08/04 18:29:33;;;;;;;1.50;0.65;;;32.10;60.60;;;;;;4961185;28;20022;-87
2022/08/04 18:31:59;;;;;;;2.10;0.80;;;32.00;60.60;;;;;;4963539;28;20022;-88
2022/08/04 18:34:24;;;;;;;2.22;0.90;;;32.00;60.70;;;;;;4944012;28;20031;-87